Mid Delta Regional Airport
KGLH : now visible

Airfield :











YOU CAN JOIN US ON...

 
LOGIN :

Register | Disclaimer

   EN    FR    IT 

 









Legend :    VFR   Marginal VFR   IFR   Intensive IFR   Very Intensive IFR
Visi :
Ceiling :
>= 8 km
>= 3000ft
5 to 8 km
1000 to 3000 ft
1500m to 5 km
500 to 1000 ft
800 to 1500m
200 to 500 ft
< 800m
< 200 ft
Symbols :   Thunderstorms  Fog  Heavy snow  Heavy precipitations  Wind > 20 kt






- Airport Elevation : 131 ft
- IATA code : GLH


KGLH - Mid Delta Regional

CURRENT METAR :
  • 070053Z AUTO 16003KT 10SM FEW100 22/17 A3000 RMK AO2 SLP164 T02170167

EXPIRED METARs :
  • 062353Z 17003KT 10SM SCT110 23/17 A3001 RMK AO2 RAE2257 SLP167 P0000 60000 T02280172 10261 20222 55006
  • 062253Z AUTO 16009KT 10SM -RA FEW070 OVC110 23/16 A3000 RMK AO2 RAE2157B36 SLP164 P0000 T02330161
  • 062153Z AUTO 20008KT 10SM -RA BKN100 24/16 A3001 RMK AO2 RAB48 SLP170 P0000 T02390161

TAF KGLH
Valid from the 07 at 00:00 until the 08 at 00:00 UTC


062352Z 0700/0724 16007KT P6SM SKC
FM071000 20006KT 4SM -RA OVC025
FM071300 20007KT 2SM -RA BR OVC008
FM072000 20010G20KT P6SM VCSH BKN018



MET'MAP, your aeronautical weather chart ! - Copyright ORBIFLY December 2007 - Disclaimer

ORBIFLY MET'MAP TEAM :

Programming & Development : Alexandra Zaïnal
Concept & original design : Baudouin d'Aumeries
Assistance for programming : Marc-Olivier Méhu
Technical & hardware support : Manuel Goepfert

Contact : metmap@orbifly.com




SOURCES & CREDITS :

   NOAA       Earth
Advisory